Time;durP1;ratioP1;P1;durP2;ratioP2;P2;SDS_P1;SDS_P2;PMS_P1;PMS_P2;Temp;Humidity;BMP_temperature;BMP_pressure;BME280_temperature;BME280_humidity;BME280_pressure;Samples;Min_cycle;Max_cycle;Signal;HPM_P1;HPM_P2
2022/09/12 00:01:39;;;;;;;6.73;5.40;;;18.10;99.90;;;;;;5062776;28;20212;-31
2022/09/12 00:04:09;;;;;;;5.90;5.27;;;18.10;99.90;;;;;;5048143;28;20208;-31
2022/09/12 00:06:39;;;;;;;6.23;5.60;;;18.10;99.90;;;;;;5047140;28;20216;-30
2022/09/12 00:09:10;;;;;;;6.60;5.80;;;18.00;99.90;;;;;;5047040;28;20286;-31
2022/09/12 00:11:43;;;;;;;6.93;5.13;;;18.00;99.90;;;;;;5061898;28;20203;-31
2022/09/12 00:14:15;;;;;;;5.27;4.77;;;18.00;99.90;;;;;;5066713;28;20866;-31
2022/09/12 00:16:43;;;;;;;5.27;4.77;;;18.00;99.90;;;;;;5054096;28;20273;-31
2022/09/12 00:19:11;;;;;;;5.33;4.30;;;17.90;99.90;;;;;;5049226;28;20222;-31
2022/09/12 00:21:39;;;;;;;5.80;5.03;;;17.90;99.90;;;;;;5064682;28;20200;-31
2022/09/12 00:24:11;;;;;;;5.40;5.00;;;17.90;99.90;;;;;;5059165;28;20277;-31
2022/09/12 00:26:41;;;;;;;5.63;4.83;;;17.90;99.90;;;;;;5057586;28;20663;-31
2022/09/12 00:29:16;;;;;;;5.53;4.87;;;17.90;99.90;;;;;;5047226;28;20204;-31
2022/09/12 00:31:43;;;;;;;6.23;5.63;;;17.80;99.90;;;;;;5054743;28;20211;-31
2022/09/12 00:34:15;;;;;;;4.93;4.40;;;17.80;99.90;;;;;;5052250;28;20228;-30
2022/09/12 00:36:47;;;;;;;5.17;4.57;;;17.80;99.90;;;;;;5045723;28;20277;-30
2022/09/12 00:39:16;;;;;;;5.50;4.90;;;17.80;99.90;;;;;;5045849;28;20278;-31
2022/09/12 00:41:43;;;;;;;6.33;4.93;;;17.80;99.90;;;;;;5060072;28;20224;-31
2022/09/12 00:44:23;;;;;;;7.70;4.70;;;17.80;99.90;;;;;;5062693;28;20211;-30
2022/09/12 00:47:04;;;;;;;7.50;4.93;;;17.80;99.90;;;;;;5064250;28;20772;-31
2022/09/12 00:49:55;;;;;;;6.70;5.23;;;17.70;99.90;;;;;;5060150;28;20211;-31
2022/09/12 00:52:39;;;;;;;5.10;4.67;;;17.70;99.90;;;;;;5058306;28;20662;-31
2022/09/12 00:55:17;;;;;;;7.57;5.33;;;17.70;99.90;;;;;;5066521;28;20808;-31
2022/09/12 00:58:03;;;;;;;5.40;4.90;;;17.60;99.90;;;;;;5046166;28;20641;-31
2022/09/12 01:00:30;;;;;;;6.67;5.00;;;17.60;99.90;;;;;;5049647;28;20214;-31
2022/09/12 01:03:00;;;;;;;6.07;5.50;;;17.50;99.90;;;;;;5057939;28;20218;-31
2022/09/12 01:05:30;;;;;;;5.20;4.70;;;17.50;99.90;;;;;;5049226;28;20597;-31
2022/09/12 01:07:59;;;;;;;5.43;4.93;;;17.50;99.90;;;;;;5048943;28;20342;-31
2022/09/12 01:10:26;;;;;;;6.33;5.20;;;17.50;99.90;;;;;;5052446;28;20654;-31
2022/09/12 01:12:57;;;;;;;7.37;5.60;;;17.50;99.90;;;;;;5047686;28;20289;-31
2022/09/12 01:15:29;;;;;;;5.73;5.07;;;17.40;99.90;;;;;;5047719;28;20204;-31
2022/09/12 01:18:14;;;;;;;6.03;5.30;;;17.40;99.90;;;;;;5040289;28;20219;-31
2022/09/12 01:20:50;;;;;;;6.20;5.20;;;17.40;99.90;;;;;;5048953;28;20681;-31
2022/09/12 01:23:40;;;;;;;6.20;5.40;;;17.40;99.90;;;;;;5052777;28;20934;-31
2022/09/12 01:26:39;;;;;;;7.70;5.73;;;17.30;99.90;;;;;;5065411;28;20212;-31
2022/09/12 01:29:15;;;;;;;7.20;5.80;;;17.30;99.90;;;;;;5051000;28;20265;-31
2022/09/12 01:32:04;;;;;;;7.23;6.20;;;17.30;99.90;;;;;;5060876;28;20674;-30
2022/09/12 01:34:39;;;;;;;5.90;5.33;;;17.20;99.90;;;;;;5057370;28;20261;-31
2022/09/12 01:37:06;;;;;;;6.20;5.70;;;17.20;99.90;;;;;;5068287;28;20773;-30
2022/09/12 01:39:56;;;;;;;6.57;5.77;;;17.20;99.90;;;;;;5054085;28;20204;-31
2022/09/12 01:42:45;;;;;;;6.83;5.47;;;17.20;99.90;;;;;;5054809;28;20227;-32
2022/09/12 01:45:31;;;;;;;6.63;6.00;;;17.20;99.90;;;;;;5048471;28;20300;-30
2022/09/12 01:48:23;;;;;;;6.63;5.93;;;17.20;99.90;;;;;;5047568;28;20211;-30
2022/09/12 01:51:16;;;;;;;6.90;6.20;;;17.10;99.90;;;;;;5051362;28;20220;-31
2022/09/12 01:53:49;;;;;;;6.57;5.50;;;17.10;99.90;;;;;;5054134;28;20231;-31
2022/09/12 01:56:30;;;;;;;6.77;6.17;;;17.10;99.90;;;;;;5065297;28;20245;-31
2022/09/12 01:59:09;;;;;;;6.57;5.97;;;17.10;99.90;;;;;;5070395;28;20231;-30
2022/09/12 02:01:55;;;;;;;6.33;5.73;;;17.10;99.90;;;;;;5068603;28;20199;-31
2022/09/12 02:04:30;;;;;;;5.97;5.47;;;17.00;99.90;;;;;;5050481;28;20211;-31
2022/09/12 02:07:11;;;;;;;6.63;6.03;;;17.00;99.90;;;;;;5052705;28;20223;-30
2022/09/12 02:09:51;;;;;;;5.83;5.23;;;17.00;99.90;;;;;;5063633;28;20225;-31
2022/09/12 02:12:26;;;;;;;6.43;5.83;;;17.00;99.90;;;;;;5061971;28;20196;-30
2022/09/12 02:15:08;;;;;;;7.53;5.67;;;16.90;99.90;;;;;;5048896;28;20551;-31
2022/09/12 02:17:41;;;;;;;6.20;5.60;;;16.90;99.90;;;;;;5047328;28;20208;-30
2022/09/12 02:20:22;;;;;;;7.17;5.87;;;16.90;99.90;;;;;;5057042;28;20202;-30
2022/09/12 02:23:14;;;;;;;5.87;5.37;;;16.90;99.90;;;;;;5062028;28;20567;-32
2022/09/12 02:25:46;;;;;;;5.47;4.97;;;16.80;99.90;;;;;;5053639;28;20208;-30
2022/09/12 02:28:24;;;;;;;6.10;5.50;;;16.80;99.90;;;;;;5047087;28;20231;-30
2022/09/12 02:31:26;;;;;;;7.03;5.80;;;16.80;99.90;;;;;;5050716;28;20192;-31
2022/09/12 02:34:27;;;;;;;7.10;5.20;;;16.80;99.90;;;;;;5064627;28;20258;-30
2022/09/12 02:37:38;;;;;;;6.00;5.50;;;16.80;99.90;;;;;;5049371;28;20188;-30
2022/09/12 02:40:07;;;;;;;5.23;4.73;;;16.80;99.90;;;;;;5055956;28;20302;-31
2022/09/12 02:42:40;;;;;;;5.60;4.90;;;16.70;99.90;;;;;;5051173;28;20242;-31
2022/09/12 02:45:12;;;;;;;6.20;5.60;;;16.70;99.90;;;;;;5047517;28;20266;-31
2022/09/12 02:47:44;;;;;;;6.83;5.90;;;16.80;99.90;;;;;;5057962;28;20218;-30
2022/09/12 02:50:14;;;;;;;5.70;5.20;;;16.70;99.90;;;;;;5066167;28;20276;-31
2022/09/12 02:52:43;;;;;;;6.23;5.63;;;16.70;99.90;;;;;;5061389;28;20201;-30
2022/09/12 02:55:15;;;;;;;7.17;6.00;;;16.70;99.90;;;;;;5056377;28;20256;-30
2022/09/12 02:57:43;;;;;;;7.00;5.90;;;16.70;99.90;;;;;;5047332;28;20200;-30
2022/09/12 03:00:11;;;;;;;7.00;6.10;;;16.70;99.90;;;;;;5057107;28;20681;-31
2022/09/12 03:02:43;;;;;;;7.73;6.27;;;16.60;99.90;;;;;;5055077;28;20209;-30
2022/09/12 03:05:20;;;;;;;6.97;6.27;;;16.70;99.90;;;;;;5057841;28;20200;-30
2022/09/12 03:08:14;;;;;;;6.17;5.57;;;16.60;99.90;;;;;;5056723;28;20222;-30
2022/09/12 03:11:15;;;;;;;6.47;5.77;;;16.60;99.90;;;;;;5046823;28;20211;-30
2022/09/12 03:14:14;;;;;;;6.13;5.53;;;16.60;99.90;;;;;;5048031;28;20646;-30
2022/09/12 03:17:09;;;;;;;6.50;5.90;;;16.50;99.90;;;;;;5049025;28;20219;-31
2022/09/12 03:19:47;;;;;;;6.53;5.73;;;16.60;99.90;;;;;;5047399;28;20211;-31
2022/09/12 03:22:27;;;;;;;5.73;5.10;;;16.50;99.90;;;;;;5045805;28;20250;-30
2022/09/12 03:25:20;;;;;;;5.90;5.30;;;16.50;99.90;;;;;;5048260;28;20599;-30
2022/09/12 03:28:06;;;;;;;6.13;5.50;;;16.40;99.90;;;;;;5081897;28;20207;-32
2022/09/12 03:30:41;;;;;;;9.00;5.53;;;16.40;99.90;;;;;;5066853;28;20242;-31
2022/09/12 03:33:18;;;;;;;7.50;5.93;;;16.40;99.90;;;;;;5051444;28;20242;-30
2022/09/12 03:35:46;;;;;;;6.97;6.07;;;16.40;99.90;;;;;;5046866;28;20266;-30
2022/09/12 03:38:16;;;;;;;6.67;5.83;;;16.40;99.90;;;;;;5059325;28;20674;-30
2022/09/12 03:40:46;;;;;;;9.80;6.70;;;16.40;99.90;;;;;;5048918;28;20257;-30
2022/09/12 03:43:20;;;;;;;6.57;5.80;;;16.40;99.90;;;;;;5047180;28;20211;-30
2022/09/12 03:45:52;;;;;;;6.57;5.97;;;16.30;99.90;;;;;;5055771;28;20210;-31
2022/09/12 03:48:22;;;;;;;5.83;5.33;;;16.40;99.90;;;;;;5061648;28;20264;-31
2022/09/12 03:50:49;;;;;;;6.40;5.80;;;16.30;99.90;;;;;;5059030;28;20555;-30
2022/09/12 03:53:17;;;;;;;7.80;6.27;;;16.40;99.90;;;;;;5052158;28;20215;-30
2022/09/12 03:55:44;;;;;;;7.00;6.30;;;16.30;99.90;;;;;;5051000;28;20807;-31
2022/09/12 03:58:11;;;;;;;6.43;5.70;;;16.30;99.90;;;;;;5059545;28;20610;-30
2022/09/12 04:00:39;;;;;;;6.73;5.83;;;16.30;99.90;;;;;;5049892;28;20203;-31
2022/09/12 04:03:08;;;;;;;7.90;7.10;;;16.30;99.90;;;;;;5065176;28;20211;-30
2022/09/12 04:05:35;;;;;;;8.53;6.97;;;16.30;99.90;;;;;;5055361;28;20201;-31
2022/09/12 04:08:05;;;;;;;9.17;7.93;;;16.20;99.90;;;;;;5054418;28;20281;-30
2022/09/12 04:10:36;;;;;;;8.27;7.20;;;16.20;99.90;;;;;;5050522;28;20322;-30
2022/09/12 04:13:06;;;;;;;8.73;7.80;;;16.20;99.90;;;;;;5065879;28;20219;-30
2022/09/12 04:15:36;;;;;;;9.20;7.80;;;16.20;99.90;;;;;;5056117;28;20270;-30
2022/09/12 04:18:03;;;;;;;10.17;8.20;;;16.20;99.90;;;;;;5045145;28;20552;-31
2022/09/12 04:20:32;;;;;;;9.67;8.00;;;16.20;99.90;;;;;;5067114;28;20596;-31
2022/09/12 04:23:05;;;;;;;10.73;9.20;;;16.20;99.90;;;;;;5052505;28;20209;-30
2022/09/12 04:25:32;;;;;;;11.07;8.53;;;16.20;99.90;;;;;;5057854;28;20669;-33
2022/09/12 04:27:59;;;;;;;11.83;8.63;;;16.10;99.90;;;;;;5057338;28;20218;-33
2022/09/12 04:30:29;;;;;;;9.93;8.90;;;16.20;99.90;;;;;;5065414;28;20204;-33
2022/09/12 04:32:56;;;;;;;10.50;9.40;;;16.20;99.90;;;;;;5046558;28;21056;-33
2022/09/12 04:35:26;;;;;;;10.90;8.40;;;16.10;99.90;;;;;;5048126;28;20227;-33
2022/09/12 04:37:58;;;;;;;12.07;9.50;;;16.10;99.90;;;;;;5053222;28;20188;-33
2022/09/12 04:40:30;;;;;;;11.43;8.93;;;16.10;99.90;;;;;;5049822;28;20216;-33
2022/09/12 04:43:05;;;;;;;11.03;9.17;;;16.10;99.90;;;;;;5049593;28;20196;-33
2022/09/12 04:45:37;;;;;;;10.00;8.90;;;16.10;99.90;;;;;;5066772;28;20207;-33
2022/09/12 04:48:06;;;;;;;10.17;9.17;;;16.10;99.90;;;;;;5061103;28;20572;-33
2022/09/12 04:50:38;;;;;;;10.03;8.93;;;16.10;99.90;;;;;;5064321;28;20218;-33
2022/09/12 04:53:06;;;;;;;11.67;9.60;;;16.10;99.90;;;;;;5069951;28;20932;-32
2022/09/12 04:55:34;;;;;;;11.27;9.30;;;16.10;99.90;;;;;;5070247;28;20663;-32
2022/09/12 04:58:01;;;;;;;11.40;8.77;;;16.10;99.90;;;;;;5067757;28;20576;-32
2022/09/12 05:00:31;;;;;;;11.00;9.60;;;16.10;99.90;;;;;;5064706;28;20725;-33
2022/09/12 05:02:59;;;;;;;11.30;8.50;;;16.10;99.90;;;;;;5058205;28;20215;-36
2022/09/12 05:05:30;;;;;;;11.20;8.97;;;16.10;99.90;;;;;;5062041;28;20583;-32
2022/09/12 05:08:01;;;;;;;9.97;8.33;;;16.00;99.90;;;;;;5068503;28;20207;-34
2022/09/12 05:10:29;;;;;;;11.00;8.87;;;16.00;99.90;;;;;;5066157;28;20242;-33
2022/09/12 05:12:57;;;;;;;10.57;8.27;;;16.00;99.90;;;;;;5053121;28;20212;-33
2022/09/12 05:15:24;;;;;;;9.37;7.77;;;16.00;99.90;;;;;;5058375;28;20725;-33
2022/09/12 05:17:54;;;;;;;10.17;8.60;;;16.00;99.90;;;;;;5053415;28;20218;-33
2022/09/12 05:20:21;;;;;;;9.90;8.77;;;16.00;99.90;;;;;;5052723;28;20207;-33
2022/09/12 05:22:52;;;;;;;9.53;7.53;;;16.00;99.90;;;;;;5054472;28;20706;-33
2022/09/12 05:25:22;;;;;;;9.53;7.17;;;16.00;99.90;;;;;;5054732;28;20207;-33
2022/09/12 05:27:55;;;;;;;11.57;8.20;;;16.00;99.90;;;;;;5056724;28;20321;-33
2022/09/12 05:30:22;;;;;;;9.10;7.13;;;16.00;99.90;;;;;;5058984;28;20679;-34
2022/09/12 05:32:50;;;;;;;9.37;7.40;;;16.00;99.90;;;;;;5060979;28;20206;-33
2022/09/12 05:35:17;;;;;;;8.30;6.43;;;16.00;99.90;;;;;;5051376;28;20227;-33
2022/09/12 05:37:47;;;;;;;8.23;7.20;;;16.00;99.90;;;;;;5050812;28;20219;-33
2022/09/12 05:40:16;;;;;;;9.17;7.67;;;16.00;99.90;;;;;;5065863;28;20223;-34
2022/09/12 05:42:44;;;;;;;13.23;8.77;;;16.00;99.90;;;;;;5054765;28;20304;-32
2022/09/12 05:45:13;;;;;;;10.03;7.33;;;16.00;99.90;;;;;;5050247;28;20253;-33
2022/09/12 05:47:44;;;;;;;10.17;7.47;;;16.00;99.90;;;;;;5059499;28;20591;-32
2022/09/12 05:50:11;;;;;;;8.30;6.67;;;16.00;99.90;;;;;;5060621;28;20207;-33
2022/09/12 05:52:38;;;;;;;9.70;7.00;;;15.90;99.90;;;;;;5054821;28;20243;-31
2022/09/12 05:55:06;;;;;;;8.43;7.63;;;15.90;99.90;;;;;;5049758;28;20541;-32
2022/09/12 05:57:33;;;;;;;9.93;7.73;;;15.90;99.90;;;;;;5055229;28;20216;-30
2022/09/12 06:00:01;;;;;;;9.90;8.37;;;15.90;99.90;;;;;;5053083;28;20632;-30
2022/09/12 06:02:30;;;;;;;11.33;8.50;;;15.90;99.90;;;;;;5048861;28;20337;-30
2022/09/12 06:04:57;;;;;;;9.47;7.70;;;15.90;99.90;;;;;;5051830;28;20212;-31
2022/09/12 06:07:30;;;;;;;15.67;8.40;;;15.90;99.90;;;;;;5057995;28;20650;-30
2022/09/12 06:10:04;;;;;;;13.57;9.07;;;15.90;99.90;;;;;;5048098;28;20534;-30
2022/09/12 06:12:31;;;;;;;17.93;9.20;;;15.90;99.90;;;;;;5049243;28;20675;-30
2022/09/12 06:14:58;;;;;;;17.63;8.67;;;15.90;99.90;;;;;;5047691;28;20231;-31
2022/09/12 06:17:25;;;;;;;19.20;9.53;;;15.90;99.90;;;;;;5048515;28;20291;-30
2022/09/12 06:19:53;;;;;;;20.17;8.37;;;15.90;99.90;;;;;;5051228;28;20204;-31
2022/09/12 06:22:20;;;;;;;15.50;8.63;;;15.90;99.90;;;;;;5049490;28;20220;-31
2022/09/12 06:24:49;;;;;;;15.27;8.40;;;15.90;99.90;;;;;;5057028;28;20223;-30
2022/09/12 06:27:24;;;;;;;12.33;8.17;;;15.90;99.90;;;;;;5051944;28;20663;-30
2022/09/12 06:29:51;;;;;;;14.03;8.07;;;15.90;99.90;;;;;;5051800;28;20215;-30
2022/09/12 06:32:20;;;;;;;12.60;8.17;;;15.90;99.90;;;;;;5051380;28;20211;-30
2022/09/12 06:34:53;;;;;;;11.90;8.13;;;15.90;99.90;;;;;;5068414;28;20635;-30
2022/09/12 06:37:22;;;;;;;14.50;9.50;;;15.90;99.90;;;;;;5066491;28;20751;-30
2022/09/12 06:39:49;;;;;;;15.03;9.00;;;16.00;99.90;;;;;;5052404;28;20628;-30
2022/09/12 06:42:18;;;;;;;16.27;8.40;;;16.00;99.90;;;;;;5064162;28;20199;-31
2022/09/12 06:44:46;;;;;;;16.23;10.27;;;16.00;99.90;;;;;;5065128;28;20215;-32
2022/09/12 06:47:15;;;;;;;13.33;10.23;;;16.00;99.90;;;;;;5068081;28;20239;-33
2022/09/12 06:49:42;;;;;;;14.77;10.07;;;16.10;99.90;;;;;;5067751;28;20223;-33
2022/09/12 06:52:13;;;;;;;14.17;9.63;;;16.10;99.90;;;;;;5054373;28;20220;-32
2022/09/12 06:54:42;;;;;;;12.47;8.60;;;16.10;99.90;;;;;;5050998;28;20260;-32
2022/09/12 06:57:09;;;;;;;11.13;8.77;;;16.10;99.90;;;;;;5049341;28;20203;-33
2022/09/12 06:59:41;;;;;;;13.77;9.47;;;16.20;99.90;;;;;;5054608;28;20235;-32
2022/09/12 07:02:11;;;;;;;13.70;8.47;;;16.20;99.90;;;;;;5067880;28;20203;-32
2022/09/12 07:04:38;;;;;;;15.73;9.03;;;16.20;99.90;;;;;;5053206;28;20646;-33
2022/09/12 07:07:06;;;;;;;11.63;8.57;;;16.30;99.90;;;;;;5068118;28;20551;-33
2022/09/12 07:09:36;;;;;;;14.50;8.47;;;16.30;99.90;;;;;;5056169;28;20226;-33
2022/09/12 07:12:06;;;;;;;15.27;9.03;;;16.40;99.90;;;;;;5065323;28;20223;-32
2022/09/12 07:14:33;;;;;;;18.50;9.17;;;16.40;99.90;;;;;;5054291;28;20707;-33
2022/09/12 07:17:02;;;;;;;15.50;8.60;;;16.50;99.90;;;;;;5046874;28;20319;-34
2022/09/12 07:19:29;;;;;;;13.30;8.33;;;16.60;99.90;;;;;;5057555;28;20196;-32
2022/09/12 07:21:59;;;;;;;14.50;8.00;;;16.60;99.90;;;;;;5061551;28;20195;-33
2022/09/12 07:24:28;;;;;;;12.80;8.10;;;16.70;99.90;;;;;;5059358;28;20705;-33
2022/09/12 07:26:55;;;;;;;12.33;8.30;;;16.80;99.90;;;;;;5060150;28;20782;-33
2022/09/12 07:29:23;;;;;;;10.47;8.33;;;16.80;99.90;;;;;;5060666;28;20233;-33
2022/09/12 07:32:08;;;;;;;14.87;8.57;;;16.90;99.90;;;;;;5057078;28;20214;-34
2022/09/12 07:34:38;;;;;;;9.53;8.40;;;17.00;99.90;;;;;;5058475;28;20212;-33
2022/09/12 07:37:13;;;;;;;13.13;8.40;;;17.00;99.90;;;;;;5061328;28;20203;-34
2022/09/12 07:39:44;;;;;;;9.20;7.97;;;17.10;99.90;;;;;;5051767;28;20266;-33
2022/09/12 07:42:12;;;;;;;9.00;7.40;;;17.20;99.90;;;;;;5065414;28;20241;-33
2022/09/12 07:44:41;;;;;;;8.93;7.80;;;17.30;99.90;;;;;;5065887;28;20286;-33
2022/09/12 07:47:08;;;;;;;8.40;7.03;;;17.30;99.90;;;;;;5052516;28;20227;-33
2022/09/12 07:49:43;;;;;;;10.40;7.80;;;17.40;99.90;;;;;;5046292;28;20209;-31
2022/09/12 07:52:14;;;;;;;8.80;7.17;;;17.50;99.90;;;;;;5058829;28;20195;-33
2022/09/12 07:54:46;;;;;;;9.83;7.50;;;17.60;99.90;;;;;;5066738;28;20211;-33
2022/09/12 07:57:18;;;;;;;17.77;8.00;;;17.70;99.90;;;;;;5060363;28;20226;-33
2022/09/12 07:59:45;;;;;;;9.13;7.17;;;17.80;99.90;;;;;;5066693;28;20789;-33
2022/09/12 08:02:19;;;;;;;7.70;6.50;;;17.90;99.90;;;;;;5049026;28;20288;-32
2022/09/12 08:04:51;;;;;;;8.60;6.67;;;18.00;99.90;;;;;;5046562;28;20205;-34
2022/09/12 08:07:33;;;;;;;13.18;7.38;;;18.10;99.90;;;;;;5067406;28;20413;-33
2022/09/12 08:10:02;;;;;;;10.47;7.47;;;18.20;99.90;;;;;;5056943;28;20515;-32
2022/09/12 08:12:31;;;;;;;8.60;6.30;;;18.20;99.90;;;;;;5050891;28;20203;-33
2022/09/12 08:15:01;;;;;;;9.03;7.10;;;18.30;99.90;;;;;;5067314;28;20664;-33
2022/09/12 08:17:31;;;;;;;8.50;6.70;;;18.40;99.90;;;;;;5049355;28;20234;-33
2022/09/12 08:19:58;;;;;;;8.70;6.23;;;18.50;99.90;;;;;;5047795;28;20204;-33
2022/09/12 08:22:29;;;;;;;6.00;5.23;;;18.60;99.90;;;;;;5048495;28;20227;-33
2022/09/12 08:24:56;;;;;;;5.57;4.97;;;18.70;99.90;;;;;;5053060;28;20200;-34
2022/09/12 08:27:25;;;;;;;6.73;5.17;;;18.80;99.90;;;;;;5057046;28;20215;-33
2022/09/12 08:29:54;;;;;;;5.47;4.97;;;18.90;99.90;;;;;;5066695;28;20632;-34
2022/09/12 08:32:21;;;;;;;9.43;5.83;;;18.90;99.90;;;;;;5066562;28;20202;-32
2022/09/12 08:34:48;;;;;;;16.60;6.50;;;19.00;99.90;;;;;;5062955;28;20630;-32
2022/09/12 08:37:16;;;;;;;13.10;6.30;;;19.00;99.90;;;;;;5057864;28;20299;-31
2022/09/12 08:39:48;;;;;;;12.13;5.50;;;19.10;99.90;;;;;;5049550;28;20222;-30
2022/09/12 08:42:36;;;;;;;7.63;5.60;;;19.20;99.90;;;;;;5045227;28;20307;-31
2022/09/12 08:45:21;;;;;;;8.65;4.60;;;19.30;99.90;;;;;;5049107;28;20272;-31
2022/09/12 08:47:55;;;;;;;6.23;4.30;;;19.30;99.90;;;;;;5065456;28;20198;-30
2022/09/12 08:50:25;;;;;;;4.40;4.00;;;19.40;99.90;;;;;;5046601;28;20210;-30
2022/09/12 08:53:27;;;;;;;4.80;4.30;;;19.50;99.90;;;;;;5045750;28;20292;-30
2022/09/12 08:55:59;;;;;;;7.53;4.20;;;19.50;99.90;;;;;;5046966;28;20238;-31
2022/09/12 08:58:29;;;;;;;5.47;4.27;;;19.60;99.90;;;;;;5060184;28;20239;-30
2022/09/12 09:01:01;;;;;;;9.60;3.75;;;19.70;99.90;;;;;;5045969;28;20206;-31
2022/09/12 09:03:59;;;;;;;3.77;3.47;;;19.70;99.90;;;;;;5045580;28;20209;-31
2022/09/12 09:06:51;;;;;;;5.87;3.63;;;19.80;99.90;;;;;;5054778;28;20243;-31
2022/09/12 09:09:38;;;;;;;8.88;4.47;;;19.80;99.90;;;;;;5047473;28;20549;-31
2022/09/12 09:12:25;;;;;;;5.80;3.57;;;19.90;99.90;;;;;;5061918;28;20207;-33
2022/09/12 09:15:25;;;;;;;5.03;3.03;;;19.90;99.90;;;;;;5050298;28;20208;-33
2022/09/12 09:18:09;;;;;;;4.20;3.60;;;20.00;99.90;;;;;;5047570;28;20208;-33
2022/09/12 09:20:41;;;;;;;5.30;3.43;;;20.00;99.90;;;;;;5060272;28;20206;-33
2022/09/12 09:23:33;;;;;;;5.97;3.00;;;20.10;99.90;;;;;;5060402;28;20219;-33
2022/09/12 09:26:14;;;;;;;4.13;3.60;;;20.10;99.90;;;;;;5058168;28;20211;-31
2022/09/12 09:28:51;;;;;;;4.72;3.20;;;20.20;99.90;;;;;;5057820;28;20208;-30
2022/09/12 09:31:24;;;;;;;6.50;3.67;;;20.20;99.90;;;;;;5048378;28;20216;-31
2022/09/12 09:33:56;;;;;;;4.27;3.57;;;20.20;99.90;;;;;;5045981;28;20208;-30
2022/09/12 09:36:49;;;;;;;5.70;4.17;;;20.30;99.90;;;;;;5051198;28;20306;-30
2022/09/12 09:39:35;;;;;;;5.75;3.72;;;20.30;99.90;;;;;;5066187;28;20304;-31
2022/09/12 09:42:11;;;;;;;7.82;3.08;;;20.40;99.90;;;;;;5050171;28;20588;-30
2022/09/12 09:44:38;;;;;;;3.35;3.08;;;20.40;99.90;;;;;;5051223;28;20562;-30
2022/09/12 09:47:11;;;;;;;5.67;4.10;;;20.40;99.90;;;;;;5056418;28;20224;-31
2022/09/12 09:49:39;;;;;;;3.53;3.23;;;20.40;99.90;;;;;;5064072;28;20684;-30
2022/09/12 09:52:10;;;;;;;3.72;3.33;;;20.50;99.90;;;;;;5050009;28;20201;-30
2022/09/12 09:54:43;;;;;;;3.90;3.50;;;20.50;99.90;;;;;;5049460;28;20664;-30
2022/09/12 09:57:35;;;;;;;3.70;3.40;;;20.60;99.90;;;;;;5056704;28;20228;-30
2022/09/12 10:00:29;;;;;;;3.88;3.55;;;20.70;99.90;;;;;;5049826;28;20662;-30
2022/09/12 10:03:08;;;;;;;4.43;3.20;;;20.70;99.90;;;;;;5049111;28;20297;-30
2022/09/12 10:06:24;;;;;;;4.03;2.72;;;20.70;99.90;;;;;;5048990;28;20215;-30
2022/09/12 10:09:23;;;;;;;3.27;2.97;;;20.80;99.90;;;;;;5058043;28;20199;-30
2022/09/12 10:11:52;;;;;;;3.60;3.10;;;20.80;99.90;;;;;;5053023;28;20215;-30
2022/09/12 10:14:26;;;;;;;3.40;3.10;;;20.80;99.90;;;;;;5049475;28;20210;-33
2022/09/12 10:16:53;;;;;;;3.40;3.00;;;20.90;99.90;;;;;;5054251;28;20239;-33
2022/09/12 10:19:29;;;;;;;2.63;2.35;;;21.00;99.90;;;;;;5049442;28;20295;-33
2022/09/12 10:21:56;;;;;;;4.10;3.22;;;21.00;99.90;;;;;;5048649;28;20206;-33
2022/09/12 10:24:25;;;;;;;3.58;3.00;;;21.00;99.90;;;;;;5052389;28;20237;-33
2022/09/12 10:26:56;;;;;;;2.95;2.50;;;21.10;99.90;;;;;;5049959;28;20207;-33
2022/09/12 10:29:23;;;;;;;3.28;2.63;;;21.10;99.90;;;;;;5046224;28;20208;-34
2022/09/12 10:31:54;;;;;;;4.05;2.80;;;21.10;99.90;;;;;;5055824;28;20677;-33
2022/09/12 10:34:29;;;;;;;2.63;2.42;;;21.20;99.90;;;;;;5067789;28;20591;-33
2022/09/12 10:37:05;;;;;;;2.78;2.58;;;21.20;99.90;;;;;;5058544;28;20223;-34
2022/09/12 10:39:34;;;;;;;2.90;2.70;;;21.20;99.90;;;;;;5046338;28;20219;-33
2022/09/12 10:42:04;;;;;;;3.80;2.72;;;21.30;99.90;;;;;;5047367;28;20889;-34
2022/09/12 10:44:34;;;;;;;2.80;2.42;;;21.30;99.90;;;;;;5048503;28;20200;-34
2022/09/12 10:47:29;;;;;;;3.95;2.60;;;21.40;99.90;;;;;;5047857;28;20228;-33
2022/09/12 10:50:20;;;;;;;3.75;2.97;;;21.40;99.90;;;;;;5055578;28;20208;-34
2022/09/12 10:53:13;;;;;;;2.88;2.67;;;21.50;99.90;;;;;;5056290;28;20212;-36
2022/09/12 10:56:13;;;;;;;2.75;2.40;;;21.50;99.90;;;;;;5054085;28;20675;-34
2022/09/12 10:59:01;;;;;;;2.33;2.13;;;21.50;99.90;;;;;;5047977;28;20278;-33
2022/09/12 11:01:35;;;;;;;2.42;2.22;;;21.50;99.90;;;;;;5048107;28;20231;-34
2022/09/12 11:04:29;;;;;;;2.83;2.15;;;21.60;99.90;;;;;;5048015;28;20205;-33
2022/09/12 11:07:28;;;;;;;2.97;2.30;;;21.60;99.90;;;;;;5070660;28;20298;-34
2022/09/12 11:10:05;;;;;;;2.95;2.58;;;21.70;99.90;;;;;;5050244;28;20326;-33
2022/09/12 11:13:20;;;;;;;2.30;2.10;;;21.70;99.90;;;;;;5053153;28;20249;-34
2022/09/12 11:16:11;;;;;;;2.80;2.30;;;21.80;99.90;;;;;;5065587;28;20619;-34
2022/09/12 11:19:02;;;;;;;3.50;2.67;;;21.80;99.90;;;;;;5066225;28;20291;-34
2022/09/12 11:22:15;;;;;;;3.17;2.10;;;21.90;99.90;;;;;;5068352;28;20199;-33
2022/09/12 11:25:09;;;;;;;4.18;2.17;;;21.90;99.90;;;;;;5052383;28;20207;-33
2022/09/12 11:27:39;;;;;;;3.67;2.17;;;22.00;99.90;;;;;;5066363;28;20589;-33
2022/09/12 11:30:14;;;;;;;4.75;2.47;;;22.00;99.90;;;;;;5057925;28;20551;-34
2022/09/12 11:32:53;;;;;;;2.33;2.13;;;22.10;99.90;;;;;;5048043;28;20200;-34
2022/09/12 11:35:31;;;;;;;2.60;1.95;;;22.10;99.90;;;;;;5046404;28;20188;-34
2022/09/12 11:38:31;;;;;;;2.22;1.83;;;22.20;99.90;;;;;;5048016;28;20747;-33
2022/09/12 11:41:05;;;;;;;2.80;1.92;;;22.20;99.90;;;;;;5062525;28;20223;-34
2022/09/12 11:44:13;;;;;;;2.25;1.70;;;22.20;99.90;;;;;;5063208;28;20298;-31
2022/09/12 11:46:42;;;;;;;4.82;2.00;;;22.30;99.90;;;;;;5051309;28;20262;-31
2022/09/12 11:49:33;;;;;;;1.90;1.70;;;22.30;99.90;;;;;;5046370;28;20223;-31
2022/09/12 11:52:16;;;;;;;2.03;1.60;;;22.30;99.90;;;;;;5059879;28;20872;-30
2022/09/12 11:55:02;;;;;;;1.45;1.35;;;22.40;99.90;;;;;;5064828;28;20206;-30
2022/09/12 11:57:35;;;;;;;1.80;1.70;;;22.40;99.90;;;;;;5047773;28;20230;-32
2022/09/12 12:00:10;;;;;;;2.83;1.63;;;22.50;99.90;;;;;;5058738;28;20245;-30
2022/09/12 12:03:08;;;;;;;3.42;1.98;;;22.50;99.90;;;;;;5047311;28;20211;-30
2022/09/12 12:05:44;;;;;;;3.05;1.65;;;22.60;99.90;;;;;;5045836;28;20222;-30
2022/09/12 12:08:13;;;;;;;1.83;1.70;;;22.60;99.90;;;;;;5052470;28;20195;-30
2022/09/12 12:10:52;;;;;;;1.77;1.67;;;22.70;99.90;;;;;;5047793;28;20220;-29
2022/09/12 12:13:34;;;;;;;1.75;1.58;;;22.70;99.90;;;;;;5047173;28;20666;-30
2022/09/12 12:16:13;;;;;;;2.33;1.80;;;22.70;99.90;;;;;;5047120;28;20219;-30
2022/09/12 12:18:44;;;;;;;2.35;1.63;;;22.80;99.90;;;;;;5045503;28;20200;-31
2022/09/12 12:21:42;;;;;;;1.90;1.80;;;22.80;99.90;;;;;;5053834;28;20191;-30
2022/09/12 12:24:23;;;;;;;2.50;1.80;;;22.90;99.90;;;;;;5047707;28;20224;-31
2022/09/12 12:26:56;;;;;;;2.10;1.52;;;22.90;99.90;;;;;;5046669;28;20215;-31
2022/09/12 12:29:29;;;;;;;1.98;1.60;;;22.90;99.90;;;;;;5045514;28;20291;-31
2022/09/12 12:32:02;;;;;;;3.35;1.85;;;22.90;99.90;;;;;;5046881;28;20290;-31
2022/09/12 12:34:30;;;;;;;6.45;1.73;;;22.90;99.90;;;;;;5051229;28;20678;-31
2022/09/12 12:37:18;;;;;;;2.60;1.70;;;23.00;99.90;;;;;;5059023;28;20234;-31
2022/09/12 12:39:46;;;;;;;1.90;1.80;;;23.10;99.90;;;;;;5049957;28;20557;-32
2022/09/12 12:42:35;;;;;;;1.70;1.60;;;23.10;99.90;;;;;;5046246;28;20216;-31
2022/09/12 12:45:10;;;;;;;2.28;1.58;;;23.20;99.90;;;;;;5067076;28;20200;-31
2022/09/12 12:47:37;;;;;;;2.38;1.52;;;23.20;99.90;;;;;;5050238;28;20200;-31
2022/09/12 12:50:13;;;;;;;3.30;1.60;;;23.30;99.90;;;;;;5054611;28;20219;-31
2022/09/12 12:52:56;;;;;;;3.35;1.40;;;23.30;99.90;;;;;;5063021;28;20210;-31
2022/09/12 12:55:34;;;;;;;3.65;1.60;;;23.40;99.90;;;;;;5053784;28;20349;-31
2022/09/12 12:58:04;;;;;;;2.10;1.50;;;23.50;99.90;;;;;;5049459;28;20280;-32
2022/09/12 13:00:38;;;;;;;1.85;1.52;;;23.50;99.90;;;;;;5057024;28;20227;-32
2022/09/12 13:03:08;;;;;;;2.42;1.65;;;23.50;99.90;;;;;;5045637;28;20222;-31
2022/09/12 13:05:47;;;;;;;2.30;1.40;;;23.60;99.90;;;;;;5047925;28;20228;-31
2022/09/12 13:08:17;;;;;;;4.05;1.65;;;23.70;99.90;;;;;;5052757;28;20211;-31
2022/09/12 13:11:00;;;;;;;1.50;1.40;;;23.70;99.90;;;;;;5047839;28;20212;-31
2022/09/12 13:13:47;;;;;;;2.95;1.60;;;23.80;99.90;;;;;;5063912;28;20284;-31
2022/09/12 13:16:36;;;;;;;2.33;1.50;;;23.80;99.90;;;;;;5070033;28;20211;-33
2022/09/12 13:19:13;;;;;;;1.55;1.40;;;23.90;99.90;;;;;;5060276;28;20215;-34
2022/09/12 13:22:09;;;;;;;1.90;1.40;;;23.90;99.90;;;;;;5068178;28;20219;-34
2022/09/12 13:24:51;;;;;;;1.38;1.27;;;24.00;99.90;;;;;;5067388;28;20608;-33
2022/09/12 13:27:21;;;;;;;3.42;1.60;;;24.00;99.90;;;;;;5068171;28;20686;-34
2022/09/12 13:29:49;;;;;;;2.13;1.92;;;24.00;99.90;;;;;;5059565;28;20647;-33